createdAt,value
2017-09-05T00:00:25.230Z,0
2017-09-05T00:01:24.569Z,0
2017-09-05T00:02:24.876Z,0
2017-09-05T00:03:24.546Z,0
2017-09-05T00:04:24.208Z,0
2017-09-05T00:05:24.559Z,0
2017-09-05T00:06:24.510Z,0
2017-09-05T00:07:24.177Z,0
2017-09-05T00:08:24.167Z,0
2017-09-05T00:09:25.114Z,0
2017-09-05T00:10:25.101Z,0
2017-09-05T00:11:24.770Z,0
2017-09-05T00:12:25.089Z,0
2017-09-05T00:13:25.072Z,0
2017-09-05T00:14:24.297Z,0
2017-09-05T00:15:24.417Z,0
2017-09-05T00:16:24.386Z,0
2017-09-05T00:17:24.054Z,0
2017-09-05T00:18:24.045Z,0
2017-09-05T00:19:24.989Z,0
2017-09-05T00:20:24.674Z,0
2017-09-05T00:21:24.966Z,0
2017-09-05T00:22:23.991Z,0
2017-09-05T00:23:24.302Z,0
2017-09-05T00:24:24.293Z,0
2017-09-05T00:25:24.599Z,0
2017-09-05T00:26:24.582Z,0
2017-09-05T00:27:24.572Z,0
2017-09-05T00:28:24.233Z,0
2017-09-05T00:29:23.906Z,0
2017-09-05T00:30:24.536Z,0
2017-09-05T00:31:24.210Z,0
2017-09-05T00:32:24.514Z,0
2017-09-05T00:33:24.499Z,0
2017-09-05T00:34:24.529Z,0
2017-09-05T00:35:24.157Z,0
2017-09-05T00:36:24.786Z,0
2017-09-05T00:37:24.128Z,0
2017-09-05T00:38:24.438Z,0
2017-09-05T00:39:24.101Z,0
2017-09-05T00:40:24.419Z,0
2017-09-05T00:41:24.407Z,0
2017-09-05T00:42:24.078Z,0
2017-09-05T00:43:24.057Z,0
2017-09-05T00:44:23.725Z,0
2017-09-05T00:45:24.355Z,0
2017-09-05T00:46:23.699Z,0
2017-09-05T00:47:24.386Z,0
2017-09-05T00:48:24.003Z,0
2017-09-05T00:49:23.983Z,0
2017-09-05T00:50:24.297Z,0
2017-09-05T00:51:23.639Z,0
2017-09-05T00:52:23.632Z,0
2017-09-05T00:53:24.258Z,0
2017-09-05T00:54:23.930Z,0
2017-09-05T00:55:23.913Z,0
2017-09-05T00:56:23.580Z,0
2017-09-05T00:57:24.214Z,0
2017-09-05T00:58:23.568Z,0
2017-09-05T00:59:23.544Z,0
2017-09-05T01:00:24.176Z,0
2017-09-05T01:01:23.849Z,0
2017-09-05T01:02:23.837Z,0
2017-09-05T01:03:23.820Z,0
2017-09-05T01:04:24.123Z,0
2017-09-05T01:05:23.794Z,0
2017-09-05T01:06:24.106Z,0
2017-09-05T01:07:24.420Z,0
2017-09-05T01:08:23.790Z,0
2017-09-05T01:09:23.763Z,0
2017-09-05T01:10:23.755Z,0
2017-09-05T01:11:23.732Z,0
2017-09-05T01:12:24.038Z,0
2017-09-05T01:13:23.709Z,0
2017-09-05T01:14:24.348Z,0
2017-09-05T01:15:23.362Z,0
2017-09-05T01:16:23.998Z,0
2017-09-05T01:17:23.336Z,0
2017-09-05T01:18:23.655Z,0
2017-09-05T01:19:23.962Z,0
2017-09-05T01:20:23.945Z,0
2017-09-05T01:21:24.267Z,0
2017-09-05T01:22:23.287Z,0
2017-09-05T01:23:23.599Z,0
2017-09-05T01:24:24.227Z,0
2017-09-05T01:25:23.889Z,0
2017-09-05T01:26:23.561Z,0
2017-09-05T01:27:23.560Z,0
2017-09-05T01:28:23.528Z,0
2017-09-05T01:29:24.191Z,0
2017-09-05T01:30:23.542Z,0
2017-09-05T01:31:23.843Z,0
2017-09-05T01:32:23.863Z,0
2017-09-05T01:33:23.827Z,0
2017-09-05T01:34:23.785Z,0
2017-09-05T01:35:23.772Z,0
2017-09-05T01:36:24.081Z,0
2017-09-05T01:37:23.755Z,0
2017-09-05T01:38:23.420Z,0
2017-09-05T01:39:23.091Z,0
2017-09-05T01:40:23.395Z,0
2017-09-05T01:41:23.734Z,0
2017-09-05T01:42:23.406Z,0
2017-09-05T01:43:23.683Z,0
2017-09-05T01:44:23.703Z,0
2017-09-05T01:45:23.661Z,0
2017-09-05T01:46:23.653Z,0
2017-09-05T01:47:23.632Z,0
2017-09-05T01:48:23.319Z,0
2017-09-05T01:49:23.302Z,0
2017-09-05T01:50:22.968Z,0
2017-09-05T01:51:23.267Z,0
2017-09-05T01:52:23.917Z,0
2017-09-05T01:53:23.896Z,0
2017-09-05T01:54:23.238Z,0
2017-09-05T01:55:23.222Z,0
2017-09-05T01:56:23.879Z,0
2017-09-05T01:57:23.524Z,0
2017-09-05T01:58:23.835Z,0
2017-09-05T01:59:23.192Z,0
2017-09-05T02:00:23.817Z,0
2017-09-05T02:01:23.482Z,0
2017-09-05T02:02:23.819Z,0
2017-09-05T02:03:23.460Z,0
2017-09-05T02:04:23.125Z,0
2017-09-05T02:05:23.114Z,0
2017-09-05T02:06:23.420Z,0
2017-09-05T02:07:23.744Z,0
2017-09-05T02:08:23.405Z,0
2017-09-05T02:09:23.065Z,0
2017-09-05T02:10:23.374Z,0
2017-09-05T02:11:23.688Z,0
2017-09-05T02:12:23.032Z,0
2017-09-05T02:13:23.085Z,0
2017-09-05T02:14:23.540Z,0
2017-09-05T02:15:23.001Z,0
2017-09-05T02:16:22.994Z,0
2017-09-05T02:17:22.980Z,0
2017-09-05T02:18:23.343Z,0
2017-09-05T02:19:22.633Z,0
2017-09-05T02:20:23.270Z,0
2017-09-05T02:21:23.252Z,0
2017-09-05T02:22:22.601Z,0
2017-09-05T02:23:22.916Z,0
2017-09-05T02:24:23.544Z,0
2017-09-05T02:25:23.532Z,0
2017-09-05T02:26:22.879Z,0
2017-09-05T02:27:23.524Z,0
2017-09-05T02:28:22.859Z,0
2017-09-05T02:29:22.852Z,0
2017-09-05T02:30:23.172Z,0
2017-09-05T02:31:23.484Z,0
2017-09-05T02:32:22.828Z,0
2017-09-05T02:33:23.133Z,0
2017-09-05T02:34:23.116Z,0
2017-09-05T02:35:22.787Z,0
2017-09-05T02:36:23.098Z,0
2017-09-05T02:37:22.752Z,0
2017-09-05T02:38:22.749Z,0
2017-09-05T02:39:23.054Z,0
2017-09-05T02:40:23.045Z,0
2017-09-05T02:41:23.036Z,0
2017-09-05T02:42:23.036Z,0
2017-09-05T02:43:23.336Z,0
2017-09-05T02:44:22.362Z,0
2017-09-05T02:45:22.668Z,0
2017-09-05T02:46:22.340Z,0
2017-09-05T02:47:22.650Z,0
2017-09-05T02:48:22.957Z,0
2017-09-05T02:49:23.276Z,0
2017-09-05T02:50:22.614Z,0
2017-09-05T02:51:22.602Z,0
2017-09-05T02:52:22.594Z,0
2017-09-05T02:53:22.906Z,0
2017-09-05T02:54:23.221Z,0
2017-09-05T02:55:23.218Z,0
2017-09-05T02:56:22.549Z,0
2017-09-05T02:57:22.219Z,0
2017-09-05T02:58:23.171Z,0
2017-09-05T02:59:22.849Z,0
2017-09-05T03:00:22.509Z,0
2017-09-05T03:01:22.817Z,0
2017-09-05T03:02:23.127Z,0
2017-09-05T03:03:22.157Z,0
2017-09-05T03:04:22.461Z,0
2017-09-05T03:05:22.774Z,0
2017-09-05T03:06:22.446Z,0
2017-09-05T03:07:22.432Z,0
2017-09-05T03:08:22.099Z,0
2017-09-05T03:09:22.086Z,0
2017-09-05T03:10:22.076Z,0
2017-09-05T03:11:22.076Z,0
2017-09-05T03:12:22.387Z,0
2017-09-05T03:13:22.686Z,0
2017-09-05T03:14:23.000Z,0
2017-09-05T03:15:22.665Z,0
2017-09-05T03:16:22.324Z,0
2017-09-05T03:17:22.638Z,0
2017-09-05T03:18:22.623Z,0
2017-09-05T03:19:22.297Z,0
2017-09-05T03:20:22.280Z,0
2017-09-05T03:21:21.951Z,0
2017-09-05T03:22:22.913Z,0
2017-09-05T03:23:22.251Z,0
2017-09-05T03:24:22.241Z,0
2017-09-05T03:25:22.229Z,0
2017-09-05T03:26:22.543Z,0
2017-09-05T03:27:22.849Z,0
2017-09-05T03:28:22.195Z,0
2017-09-05T03:29:22.823Z,0
2017-09-05T03:30:22.824Z,0
2017-09-05T03:31:22.161Z,0
2017-09-05T03:32:22.469Z,0
2017-09-05T03:33:22.461Z,0
2017-09-05T03:34:22.453Z,0
2017-09-05T03:35:21.799Z,0
2017-09-05T03:36:22.748Z,0
2017-09-05T03:37:22.416Z,0
2017-09-05T03:38:22.086Z,0
2017-09-05T03:39:22.401Z,0
2017-09-05T03:40:22.067Z,0
2017-09-05T03:41:22.371Z,0
2017-09-05T03:42:22.689Z,0
2017-09-05T03:43:22.675Z,0
2017-09-05T03:44:21.696Z,0
2017-09-05T03:45:22.327Z,0
2017-09-05T03:46:22.653Z,0
2017-09-05T03:47:22.311Z,0
2017-09-05T03:48:21.986Z,0
2017-09-05T03:49:21.652Z,0
2017-09-05T03:50:21.952Z,0
2017-09-05T03:51:22.583Z,0
2017-09-05T03:52:22.582Z,0
2017-09-05T03:53:22.292Z,0
2017-09-05T03:54:22.242Z,0
2017-09-05T03:55:22.544Z,0
2017-09-05T03:56:22.537Z,0
2017-09-05T03:57:22.205Z,0
2017-09-05T03:58:22.193Z,0
2017-09-05T03:59:21.855Z,0
2017-09-05T04:00:21.840Z,0
2017-09-05T04:01:21.511Z,0
2017-09-05T04:02:21.837Z,0
2017-09-05T04:03:21.494Z,0
2017-09-05T04:04:22.132Z,0
2017-09-05T04:05:21.471Z,0
2017-09-05T04:06:21.778Z,0
2017-09-05T04:07:22.088Z,0
2017-09-05T04:08:21.761Z,0
2017-09-05T04:09:22.062Z,0
2017-09-05T04:10:21.417Z,0
2017-09-05T04:11:21.404Z,0
2017-09-05T04:12:22.055Z,0
2017-09-05T04:13:22.039Z,0
2017-09-05T04:14:22.020Z,0
2017-09-05T04:15:21.711Z,0
2017-09-05T04:16:21.667Z,0
2017-09-05T04:17:21.655Z,0
2017-09-05T04:18:21.643Z,0
2017-09-05T04:19:22.277Z,0
2017-09-05T04:20:21.624Z,0
2017-09-05T04:21:21.619Z,0
2017-09-05T04:22:21.601Z,0
2017-09-05T04:23:21.916Z,0
2017-09-05T04:24:22.226Z,0
2017-09-05T04:25:21.889Z,4
2017-09-05T04:26:21.884Z,4
2017-09-05T04:27:21.546Z,0
2017-09-05T04:28:21.537Z,4
2017-09-05T04:29:21.860Z,4
2017-09-05T04:30:21.511Z,4
2017-09-05T04:31:21.828Z,4
2017-09-05T04:32:21.510Z,4
2017-09-05T04:33:21.808Z,8
2017-09-05T04:34:21.471Z,8
2017-09-05T04:35:21.784Z,8
2017-09-05T04:36:21.771Z,8
2017-09-05T04:37:21.760Z,12
2017-09-05T04:38:22.063Z,16
2017-09-05T04:39:21.741Z,16
2017-09-05T04:40:21.733Z,20
2017-09-05T04:41:21.722Z,20
2017-09-05T04:42:21.708Z,28
2017-09-05T04:43:21.703Z,36
2017-09-05T04:44:22.009Z,40
2017-09-05T04:45:21.348Z,52
2017-09-05T04:46:21.018Z,60
2017-09-05T04:47:21.358Z,72
2017-09-05T04:48:21.960Z,84
2017-09-05T04:49:21.625Z,96
2017-09-05T04:50:21.297Z,108
2017-09-05T04:51:21.602Z,120
2017-09-05T04:52:21.270Z,128
2017-09-05T04:53:21.582Z,140
2017-09-05T04:54:21.571Z,156
2017-09-05T04:55:20.923Z,164
2017-09-05T04:56:21.557Z,176
2017-09-05T04:57:21.538Z,192
2017-09-05T04:58:21.563Z,208
2017-09-05T04:59:21.198Z,216
2017-09-05T05:00:21.187Z,232
2017-09-05T05:01:21.172Z,240
2017-09-05T05:02:20.847Z,256
2017-09-05T05:03:21.164Z,276
2017-09-05T05:04:21.145Z,280
2017-09-05T05:05:21.476Z,284
2017-09-05T05:06:21.123Z,292
2017-09-05T05:07:21.752Z,320
2017-09-05T05:08:20.780Z,356
2017-09-05T05:09:21.419Z,396
2017-09-05T05:10:21.081Z,428
2017-09-05T05:11:20.743Z,452
2017-09-05T05:12:21.053Z,480
2017-09-05T05:13:21.691Z,516
2017-09-05T05:14:21.683Z,552
2017-09-05T05:15:20.716Z,572
2017-09-05T05:16:21.334Z,592
2017-09-05T05:17:21.002Z,624
2017-09-05T05:18:20.996Z,656
2017-09-05T05:19:21.628Z,700
2017-09-05T05:20:21.302Z,752
2017-09-05T05:21:20.976Z,788
2017-09-05T05:22:20.944Z,808
2017-09-05T05:23:21.256Z,816
2017-09-05T05:24:21.248Z,832
2017-09-05T05:25:20.924Z,856
2017-09-05T05:26:21.225Z,892
2017-09-05T05:27:20.894Z,968
2017-09-05T05:28:20.881Z,1052
2017-09-05T05:29:21.516Z,1176
2017-09-05T05:30:20.866Z,1308
2017-09-05T05:31:20.853Z,1408
2017-09-05T05:32:20.841Z,1480
2017-09-05T05:33:21.153Z,1492
2017-09-05T05:34:21.188Z,1448
2017-09-05T05:35:20.501Z,1384
2017-09-05T05:36:21.129Z,1332
2017-09-05T05:37:20.798Z,1264
2017-09-05T05:38:21.430Z,1224
2017-09-05T05:39:21.086Z,1268
2017-09-05T05:40:21.396Z,1360
2017-09-05T05:41:21.388Z,1352
2017-09-05T05:42:21.081Z,1280
2017-09-05T05:43:20.401Z,1264
2017-09-05T05:44:21.037Z,1328
2017-09-05T05:45:20.382Z,1428
2017-09-05T05:46:21.007Z,1460
2017-09-05T05:47:20.689Z,1516
2017-09-05T05:48:20.671Z,1668
2017-09-05T05:49:20.654Z,1668
2017-09-05T05:50:20.650Z,1556
2017-09-05T05:51:20.630Z,1492
2017-09-05T05:52:20.626Z,1504
2017-09-05T05:53:20.614Z,1580
2017-09-05T05:54:20.283Z,1876
2017-09-05T05:55:20.916Z,2136
2017-09-05T05:56:20.902Z,2048
2017-09-05T05:57:20.891Z,2100
2017-09-05T05:58:20.882Z,2360
2017-09-05T05:59:20.224Z,2420
2017-09-05T06:00:20.860Z,2504
2017-09-05T06:01:20.844Z,2764
2017-09-05T06:02:21.171Z,2948
2017-09-05T06:03:20.865Z,3060
2017-09-05T06:04:20.495Z,3136
2017-09-05T06:05:21.131Z,3100
2017-09-05T06:06:20.525Z,3140
2017-09-05T06:07:20.782Z,3152
2017-09-05T06:08:20.775Z,3124
2017-09-05T06:09:20.771Z,3060
2017-09-05T06:10:20.752Z,2960
2017-09-05T06:11:20.426Z,2916
2017-09-05T06:12:20.431Z,2664
2017-09-05T06:13:20.406Z,2508
2017-09-05T06:14:20.394Z,2484
2017-09-05T06:15:20.608Z,2528
2017-09-05T06:16:20.691Z,2564
2017-09-05T06:17:20.040Z,2628
2017-09-05T06:18:20.672Z,2576
2017-09-05T06:19:20.994Z,2624
2017-09-05T06:20:20.359Z,2696
2017-09-05T06:21:20.644Z,2608
2017-09-05T06:22:20.309Z,2412
2017-09-05T06:23:20.623Z,2308
2017-09-05T06:24:20.289Z,2372
2017-09-05T06:25:19.955Z,2352
2017-09-05T06:26:20.588Z,2360
2017-09-05T06:27:20.584Z,2360
2017-09-05T06:28:20.246Z,2268
2017-09-05T06:29:20.246Z,2124
2017-09-05T06:30:19.908Z,2032
2017-09-05T06:31:20.220Z,2012
2017-09-05T06:32:20.533Z,2068
2017-09-05T06:33:20.221Z,2148
2017-09-05T06:34:20.197Z,2240
2017-09-05T06:35:20.504Z,2244
2017-09-05T06:36:20.834Z,2264
2017-09-05T06:37:20.177Z,2300
2017-09-05T06:38:20.150Z,2352
2017-09-05T06:39:20.788Z,2444
2017-09-05T06:40:19.807Z,2700
2017-09-05T06:41:20.117Z,2900
2017-09-05T06:42:20.425Z,2932
2017-09-05T06:43:20.103Z,3004
2017-09-05T06:44:20.117Z,3068
2017-09-05T06:45:20.399Z,2988
2017-09-05T06:46:20.068Z,2784
2017-09-05T06:47:19.744Z,2628
2017-09-05T06:48:20.716Z,2508
2017-09-05T06:49:20.037Z,2380
2017-09-05T06:50:20.349Z,2240
2017-09-05T06:51:20.361Z,2136
2017-09-05T06:52:20.334Z,2096
2017-09-05T06:53:20.031Z,2168
2017-09-05T06:54:20.306Z,2296
2017-09-05T06:55:19.980Z,2360
2017-09-05T06:56:19.968Z,2316
2017-09-05T06:57:19.963Z,2400
2017-09-05T06:58:19.950Z,2816
2017-09-05T06:59:19.943Z,3160
2017-09-05T07:00:20.572Z,3336
2017-09-05T07:01:19.923Z,3428
2017-09-05T07:02:19.908Z,3496
2017-09-05T07:03:19.902Z,3560
2017-09-05T07:04:20.547Z,3588
2017-09-05T07:05:20.207Z,3516
2017-09-05T07:06:20.240Z,3428
2017-09-05T07:07:19.864Z,3460
2017-09-05T07:08:19.850Z,3716
2017-09-05T07:09:20.159Z,4052
2017-09-05T07:10:19.520Z,4200
2017-09-05T07:11:20.145Z,4104
2017-09-05T07:12:20.232Z,3916
2017-09-05T07:13:19.803Z,3788
2017-09-05T07:14:20.440Z,3652
2017-09-05T07:15:19.466Z,3464
2017-09-05T07:16:19.462Z,3216
2017-09-05T07:17:20.411Z,3104
2017-09-05T07:18:20.089Z,3192
2017-09-05T07:19:20.072Z,3456
2017-09-05T07:20:19.738Z,3832
2017-09-05T07:21:19.729Z,4256
2017-09-05T07:22:19.723Z,4704
2017-09-05T07:23:19.719Z,5080
2017-09-05T07:24:20.018Z,5300
2017-09-05T07:25:19.690Z,5376
2017-09-05T07:26:20.006Z,5296
2017-09-05T07:27:19.677Z,5140
2017-09-05T07:28:20.311Z,5184
2017-09-05T07:29:19.663Z,5248
2017-09-05T07:30:19.971Z,5292
2017-09-05T07:31:19.642Z,5348
2017-09-05T07:32:19.958Z,5308
2017-09-05T07:33:19.300Z,5180
2017-09-05T07:34:19.638Z,4988
2017-09-05T07:35:19.922Z,4804
2017-09-05T07:36:19.912Z,4712
2017-09-05T07:37:19.584Z,4628
2017-09-05T07:38:20.216Z,4684
2017-09-05T07:39:19.895Z,4860
2017-09-05T07:40:19.585Z,5080
2017-09-05T07:41:19.229Z,5328
2017-09-05T07:42:19.554Z,5480
2017-09-05T07:43:19.857Z,5544
2017-09-05T07:44:19.843Z,5632
2017-09-05T07:45:19.509Z,5696
2017-09-05T07:46:19.827Z,5700
2017-09-05T07:47:20.140Z,5656
2017-09-05T07:48:19.810Z,5652
2017-09-05T07:49:19.803Z,5616
2017-09-05T07:50:19.475Z,5680
2017-09-05T07:51:19.787Z,5732
2017-09-05T07:52:19.773Z,5768
2017-09-05T07:53:19.760Z,5832
2017-09-05T07:54:19.436Z,5872
2017-09-05T07:55:19.426Z,5900
2017-09-05T07:56:19.737Z,5952
2017-09-05T07:57:19.736Z,6112
2017-09-05T07:58:20.044Z,6388
2017-09-05T07:59:19.386Z,6564
2017-09-05T08:00:19.700Z,6704
2017-09-05T08:01:19.375Z,6948
2017-09-05T08:02:19.374Z,7244
2017-09-05T08:03:19.999Z,7496
2017-09-05T08:04:19.669Z,7568
2017-09-05T08:05:19.660Z,7640
2017-09-05T08:06:19.328Z,7960
2017-09-05T08:07:19.318Z,8220
2017-09-05T08:08:19.319Z,8580
2017-09-05T08:09:19.306Z,8972
2017-09-05T08:10:19.615Z,9096
2017-09-05T08:11:19.617Z,8948
2017-09-05T08:12:19.602Z,8960
2017-09-05T08:13:19.594Z,9088
2017-09-05T08:14:19.588Z,9280
2017-09-05T08:15:19.136Z,9400
2017-09-05T08:16:19.248Z,9352
2017-09-05T08:17:19.562Z,9276
2017-09-05T08:18:19.550Z,9308
2017-09-05T08:19:19.223Z,9404
2017-09-05T08:20:19.535Z,9504
2017-09-05T08:21:19.540Z,9564
2017-09-05T08:22:18.884Z,9620
2017-09-05T08:23:19.835Z,9732
2017-09-05T08:24:19.182Z,9856
2017-09-05T08:25:19.497Z,9904
2017-09-05T08:26:19.487Z,9808
2017-09-05T08:27:19.487Z,9580
2017-09-05T08:28:19.480Z,9736
2017-09-05T08:29:19.149Z,9984
2017-09-05T08:30:19.459Z,10048
2017-09-05T08:31:19.130Z,10112
2017-09-05T08:32:19.125Z,10060
2017-09-05T08:33:19.117Z,10040
2017-09-05T08:34:19.105Z,9960
2017-09-05T08:35:19.420Z,9888
2017-09-05T08:36:19.090Z,9924
2017-09-05T08:37:19.421Z,9976
2017-09-05T08:38:19.083Z,10084
2017-09-05T08:39:19.068Z,10172
2017-09-05T08:40:19.399Z,10248
2017-09-05T08:41:19.062Z,10376
2017-09-05T08:42:19.373Z,10524
2017-09-05T08:43:19.374Z,10592
2017-09-05T08:44:19.037Z,10692
2017-09-05T08:45:19.357Z,10756
2017-09-05T08:46:19.344Z,10620
2017-09-05T08:47:19.353Z,10568
2017-09-05T08:48:19.034Z,10928
2017-09-05T08:49:19.329Z,11488
2017-09-05T08:50:18.998Z,12156
2017-09-05T08:51:18.993Z,13324
2017-09-05T08:52:18.991Z,13476
2017-09-05T08:53:18.985Z,13336
2017-09-05T08:54:19.302Z,12748
2017-09-05T08:55:19.285Z,12204
2017-09-05T08:56:19.280Z,11672
2017-09-05T08:57:19.597Z,10816
2017-09-05T08:58:18.946Z,9888
2017-09-05T08:59:18.935Z,8720
2017-09-05T09:00:19.264Z,8000
2017-09-05T09:01:19.580Z,7760
2017-09-05T09:02:18.921Z,6968
2017-09-05T09:03:19.238Z,5928
2017-09-05T09:04:19.236Z,5812
2017-09-05T09:05:19.231Z,6140
2017-09-05T09:06:19.251Z,6208
2017-09-05T09:07:18.892Z,5780
2017-09-05T09:08:19.534Z,5884
2017-09-05T09:09:18.552Z,6116
2017-09-05T09:10:19.509Z,6412
2017-09-05T09:11:19.184Z,6144
2017-09-05T09:12:19.188Z,6124
2017-09-05T09:13:18.846Z,5940
2017-09-05T09:14:19.162Z,5924
2017-09-05T09:15:19.163Z,6196
2017-09-05T09:16:18.824Z,5968
2017-09-05T09:17:19.141Z,5928
2017-09-05T09:18:19.136Z,5952
2017-09-05T09:19:18.496Z,6240
2017-09-05T09:20:18.491Z,6464
2017-09-05T09:21:18.793Z,6540
2017-09-05T09:22:19.149Z,6628
2017-09-05T09:23:18.798Z,6780
2017-09-05T09:24:18.773Z,6876
2017-09-05T09:25:19.090Z,7456
2017-09-05T09:26:19.079Z,9064
2017-09-05T09:27:18.754Z,8668
2017-09-05T09:28:18.422Z,7796
2017-09-05T09:29:19.386Z,7824
2017-09-05T09:30:19.056Z,8180
2017-09-05T09:31:19.375Z,8880
2017-09-05T09:32:19.068Z,9736
2017-09-05T09:33:18.759Z,10240
2017-09-05T09:34:18.703Z,10920
2017-09-05T09:35:18.696Z,11480
2017-09-05T09:36:19.022Z,11792
2017-09-05T09:37:19.003Z,11616
2017-09-05T09:38:18.350Z,11412
2017-09-05T09:39:18.668Z,11328
2017-09-05T09:40:18.980Z,10796
2017-09-05T09:41:18.650Z,10072
2017-09-05T09:42:18.651Z,9528
2017-09-05T09:43:18.637Z,9676
2017-09-05T09:44:19.283Z,9576
2017-09-05T09:45:18.639Z,9348
2017-09-05T09:46:19.260Z,9228
2017-09-05T09:47:18.940Z,8784
2017-09-05T09:48:18.287Z,9216
2017-09-05T09:49:19.248Z,9556
2017-09-05T09:50:18.591Z,9940
2017-09-05T09:51:18.587Z,9684
2017-09-05T09:52:18.904Z,9944
2017-09-05T09:53:19.213Z,10532
2017-09-05T09:54:18.887Z,10548
2017-09-05T09:55:19.203Z,10704
2017-09-05T09:56:18.877Z,11032
2017-09-05T09:57:19.192Z,10300
2017-09-05T09:58:18.549Z,8588
2017-09-05T09:59:19.179Z,9636
2017-09-05T10:00:18.548Z,11172
2017-09-05T10:01:18.853Z,12580
2017-09-05T10:02:18.529Z,12860
2017-09-05T10:03:19.161Z,11440
2017-09-05T10:04:18.838Z,9896
2017-09-05T10:05:18.834Z,11856
2017-09-05T10:06:18.824Z,11428
2017-09-05T10:07:18.487Z,11168
2017-09-05T10:08:19.176Z,12340
2017-09-05T10:09:19.153Z,10756
2017-09-05T10:10:18.472Z,9932
2017-09-05T10:11:18.813Z,9784
2017-09-05T10:12:18.782Z,9532
2017-09-05T10:13:18.463Z,9760
2017-09-05T10:14:18.127Z,9784
2017-09-05T10:15:18.640Z,10740
2017-09-05T10:16:19.083Z,9440
2017-09-05T10:17:18.428Z,9436
2017-09-05T10:18:19.066Z,10944
2017-09-05T10:19:19.053Z,11248
2017-09-05T10:20:18.414Z,10860
2017-09-05T10:21:18.718Z,10036
2017-09-05T10:22:18.716Z,9264
2017-09-05T10:23:18.393Z,11520
2017-09-05T10:24:18.060Z,12392
2017-09-05T10:25:18.700Z,13212
2017-09-05T10:26:19.019Z,14336
2017-09-05T10:27:19.010Z,15784
2017-09-05T10:28:18.695Z,15968
2017-09-05T10:29:18.685Z,16128
2017-09-05T10:30:18.351Z,17472
2017-09-05T10:31:18.665Z,15632
2017-09-05T10:32:18.677Z,13792
2017-09-05T10:33:18.328Z,11400
2017-09-05T10:34:18.661Z,12212
2017-09-05T10:35:18.661Z,16260
2017-09-05T10:36:18.963Z,17184
2017-09-05T10:37:17.999Z,16864
2017-09-05T10:38:18.314Z,15716
2017-09-05T10:39:18.936Z,15932
2017-09-05T10:40:18.942Z,16740
2017-09-05T10:41:18.957Z,13284
2017-09-05T10:42:17.958Z,14696
2017-09-05T10:43:18.593Z,19616
2017-09-05T10:44:18.602Z,23424
2017-09-05T10:45:18.586Z,25344
2017-09-05T10:46:17.940Z,20928
2017-09-05T10:47:18.639Z,19200
2017-09-05T10:48:18.888Z,18048
2017-09-05T10:49:18.247Z,15976
2017-09-05T10:50:17.916Z,12860
2017-09-05T10:51:17.913Z,12928
2017-09-05T10:52:18.555Z,23232
2017-09-05T10:53:17.906Z,16068
2017-09-05T10:54:17.916Z,17568
2017-09-05T10:55:18.537Z,19296
2017-09-05T10:56:18.545Z,16708
2017-09-05T10:57:18.205Z,15948
2017-09-05T10:58:18.872Z,15844
2017-09-05T10:59:18.514Z,14888
2017-09-05T11:00:18.830Z,15368
2017-09-05T11:01:18.191Z,15548
2017-09-05T11:02:18.507Z,16704
2017-09-05T11:03:18.500Z,21408
2017-09-05T11:04:18.525Z,24224
2017-09-05T11:05:18.510Z,24480
2017-09-05T11:06:18.812Z,21472
2017-09-05T11:07:18.494Z,23072
2017-09-05T11:08:18.473Z,29408
2017-09-05T11:09:18.153Z,21600
2017-09-05T11:10:18.473Z,32576
2017-09-05T11:11:18.916Z,39264
2017-09-05T11:12:18.467Z,18048
2017-09-05T11:13:18.136Z,57632
2017-09-05T11:14:18.139Z,68512
2017-09-05T11:15:18.145Z,17920
2017-09-05T11:16:18.127Z,79008
2017-09-05T11:17:18.463Z,71872
2017-09-05T11:18:18.455Z,78784
2017-09-05T11:19:18.454Z,71584
2017-09-05T11:20:18.163Z,69408
2017-09-05T11:21:18.758Z,68608
2017-09-05T11:22:18.761Z,69184
2017-09-05T11:23:18.797Z,67360
2017-09-05T11:24:18.116Z,70272
2017-09-05T11:25:18.436Z,79200
2017-09-05T11:26:18.119Z,27040
2017-09-05T11:27:18.434Z,13536
2017-09-05T11:28:18.762Z,12428
2017-09-05T11:29:18.815Z,13896
2017-09-05T11:30:17.807Z,28896
2017-09-05T11:31:18.106Z,44160
2017-09-05T11:32:18.439Z,20000
2017-09-05T11:33:18.435Z,14172
2017-09-05T11:34:18.642Z,20928
2017-09-05T11:35:18.430Z,75008
2017-09-05T11:36:17.787Z,77152
2017-09-05T11:37:18.110Z,17760
2017-09-05T11:38:18.430Z,14936
2017-09-05T11:39:17.789Z,28480
2017-09-05T11:40:18.427Z,11400
2017-09-05T11:41:18.110Z,8612
2017-09-05T11:42:18.099Z,6924
2017-09-05T11:43:18.475Z,6008
2017-09-05T11:44:18.117Z,5264
2017-09-05T11:45:18.802Z,5128
2017-09-05T11:46:18.098Z,5492
2017-09-05T11:47:18.457Z,6052
2017-09-05T11:48:18.760Z,5820
2017-09-05T11:49:18.443Z,9004
2017-09-05T11:50:18.743Z,5872
2017-09-05T11:51:18.094Z,6304
2017-09-05T11:52:18.421Z,6100
2017-09-05T11:53:18.101Z,4936
2017-09-05T11:54:18.736Z,4116
2017-09-05T11:55:18.145Z,4052
2017-09-05T11:56:18.079Z,4464
2017-09-05T11:57:18.933Z,4532
2017-09-05T11:58:18.734Z,4504
2017-09-05T11:59:18.731Z,4856
2017-09-05T12:00:18.088Z,5252
2017-09-05T12:01:18.393Z,5628
2017-09-05T12:02:18.379Z,6020
2017-09-05T12:03:18.410Z,6500
2017-09-05T12:04:18.690Z,7048
2017-09-05T12:05:18.691Z,7696
2017-09-05T12:06:18.688Z,8388
2017-09-05T12:07:18.423Z,9180
2017-09-05T12:08:18.036Z,10012
2017-09-05T12:09:18.027Z,10860
2017-09-05T12:10:18.348Z,11736
2017-09-05T12:11:18.344Z,12792
2017-09-05T12:12:17.712Z,13908
2017-09-05T12:13:18.659Z,15472
2017-09-05T12:14:18.650Z,23936
2017-09-05T12:15:18.203Z,109664
2017-09-05T12:16:17.999Z,99584
2017-09-05T12:17:18.343Z,18080
2017-09-05T12:18:18.003Z,110304
2017-09-05T12:19:17.676Z,102464
2017-09-05T12:20:18.301Z,36704
2017-09-05T12:21:18.306Z,13692
2017-09-05T12:22:17.981Z,80672
2017-09-05T12:23:17.969Z,94176
2017-09-05T12:24:18.290Z,82368
2017-09-05T12:25:18.304Z,102272
2017-09-05T12:26:18.324Z,99424
2017-09-05T12:27:18.294Z,103328
2017-09-05T12:28:18.618Z,87584
2017-09-05T12:29:17.965Z,43808
2017-09-05T12:30:17.652Z,19776
2017-09-05T12:31:18.298Z,23040
2017-09-05T12:32:17.968Z,11748
2017-09-05T12:33:17.979Z,10744
2017-09-05T12:34:18.295Z,10648
2017-09-05T12:35:18.637Z,7804
2017-09-05T12:36:18.295Z,8148
2017-09-05T12:37:18.644Z,8380
2017-09-05T12:38:18.630Z,7960
2017-09-05T12:39:18.306Z,7256
2017-09-05T12:40:17.979Z,6064
2017-09-05T12:41:18.337Z,5224
2017-09-05T12:42:18.307Z,4332
2017-09-05T12:43:18.329Z,3708
2017-09-05T12:44:17.649Z,3488
2017-09-05T12:45:18.647Z,3464
2017-09-05T12:46:18.295Z,3544
2017-09-05T12:47:17.967Z,3728
2017-09-05T12:48:18.284Z,3776
2017-09-05T12:49:17.641Z,3756
2017-09-05T12:50:18.389Z,3796
2017-09-05T12:51:18.630Z,3944
2017-09-05T12:52:18.285Z,4040
2017-09-05T12:53:18.595Z,4128
2017-09-05T12:54:17.962Z,4556
2017-09-05T12:55:18.273Z,4772
2017-09-05T12:56:17.621Z,4368
2017-09-05T12:57:18.252Z,3668
2017-09-05T12:58:18.278Z,3056
2017-09-05T12:59:17.940Z,2608
2017-09-05T13:00:18.567Z,2340
2017-09-05T13:01:17.965Z,2116
2017-09-05T13:02:17.614Z,1940
2017-09-05T13:03:17.592Z,1824
2017-09-05T13:04:17.910Z,1732
2017-09-05T13:05:17.589Z,1612
2017-09-05T13:06:18.231Z,1368
2017-09-05T13:07:17.900Z,1080
2017-09-05T13:08:17.606Z,904
2017-09-05T13:09:17.891Z,724
2017-09-05T13:10:17.890Z,584
2017-09-05T13:11:17.880Z,504
2017-09-05T13:12:18.196Z,500
2017-09-05T13:13:17.875Z,536
2017-09-05T13:14:18.181Z,584
2017-09-05T13:15:17.860Z,640
2017-09-05T13:16:17.858Z,716
2017-09-05T13:17:18.161Z,828
2017-09-05T13:18:17.849Z,952
2017-09-05T13:19:18.158Z,1076
2017-09-05T13:20:18.199Z,1236
2017-09-05T13:21:18.146Z,1424
2017-09-05T13:22:18.140Z,1596
2017-09-05T13:23:17.813Z,1788
2017-09-05T13:24:18.455Z,1964
2017-09-05T13:25:18.443Z,1992
2017-09-05T13:26:18.135Z,1856
2017-09-05T13:27:18.108Z,1640
2017-09-05T13:28:18.107Z,1528
2017-09-05T13:29:18.104Z,1596
2017-09-05T13:30:18.094Z,1712
2017-09-05T13:31:17.765Z,1840
2017-09-05T13:32:18.402Z,1916
2017-09-05T13:33:17.755Z,1972
2017-09-05T13:34:18.397Z,2068
2017-09-05T13:35:18.068Z,2144
2017-09-05T13:36:18.386Z,2068
2017-09-05T13:37:18.043Z,1900
2017-09-05T13:38:18.050Z,1804
2017-09-05T13:39:18.036Z,1812
2017-09-05T13:40:17.725Z,1804
2017-09-05T13:41:18.350Z,1652
2017-09-05T13:42:18.022Z,1452
2017-09-05T13:43:17.692Z,1272